Terminal Aerodrome Forecast
Issued by NWS

Home | Current Version | Previous Version | Text Only | Print | Product List | Glossary On
Versions: 1 2 3 4 5 6 7 8 9 10 11 12 13 14 15 16 17 18 19 20
000
FTUS43 KDLH 210423 AAA
TAFHIB
TAF AMD
KHIB 210423Z 2104/2124 28006KT P6SM SCT150
      TEMPO 2104/2108 1SM BR
     FM210800 00000KT 5SM BR SKC
      TEMPO 2108/2112 1SM BR
     FM211400 VRB03KT P6SM BKN150=

USA.gov is the U.S. government's official web portal to all federal, state and local government web resources and services.